sensor_id;sensor_type;location;lat;lon;timestamp;P1;durP1;ratioP1;P2;durP2;ratioP2
57730;SDS011;43570;47.476;19.040;2022-10-26T00:02:21;10.07;;;6.60;;
57730;SDS011;43570;47.476;19.040;2022-10-26T00:04:46;12.15;;;6.40;;
57730;SDS011;43570;47.476;19.040;2022-10-26T00:07:11;8.60;;;6.37;;
57730;SDS011;43570;47.476;19.040;2022-10-26T00:09:37;10.52;;;5.95;;
57730;SDS011;43570;47.476;19.040;2022-10-26T00:12:02;8.93;;;5.55;;
57730;SDS011;43570;47.476;19.040;2022-10-26T00:14:28;8.80;;;5.85;;
57730;SDS011;43570;47.476;19.040;2022-10-26T00:16:53;8.70;;;5.68;;
57730;SDS011;43570;47.476;19.040;2022-10-26T00:19:19;8.38;;;5.50;;
57730;SDS011;43570;47.476;19.040;2022-10-26T00:21:44;7.78;;;5.82;;
57730;SDS011;43570;47.476;19.040;2022-10-26T00:24:10;8.50;;;5.25;;
57730;SDS011;43570;47.476;19.040;2022-10-26T00:26:35;7.75;;;5.12;;
57730;SDS011;43570;47.476;19.040;2022-10-26T00:29:01;9.40;;;5.40;;
57730;SDS011;43570;47.476;19.040;2022-10-26T00:31:26;8.35;;;5.75;;
57730;SDS011;43570;47.476;19.040;2022-10-26T00:33:52;9.30;;;5.20;;
57730;SDS011;43570;47.476;19.040;2022-10-26T00:36:18;11.60;;;6.22;;
57730;SDS011;43570;47.476;19.040;2022-10-26T00:38:48;11.02;;;6.05;;
57730;SDS011;43570;47.476;19.040;2022-10-26T00:43:40;8.20;;;5.35;;
57730;SDS011;43570;47.476;19.040;2022-10-26T00:46:07;8.32;;;5.25;;
57730;SDS011;43570;47.476;19.040;2022-10-26T00:48:35;9.50;;;5.43;;
57730;SDS011;43570;47.476;19.040;2022-10-26T00:51:12;8.60;;;5.90;;
57730;SDS011;43570;47.476;19.040;2022-10-26T00:53:40;8.35;;;5.43;;
57730;SDS011;43570;47.476;19.040;2022-10-26T00:56:06;8.35;;;5.20;;
57730;SDS011;43570;47.476;19.040;2022-10-26T00:58:32;9.55;;;5.95;;
57730;SDS011;43570;47.476;19.040;2022-10-26T01:00:59;8.30;;;5.72;;
57730;SDS011;43570;47.476;19.040;2022-10-26T01:03:25;8.93;;;5.82;;
57730;SDS011;43570;47.476;19.040;2022-10-26T01:05:52;11.25;;;6.40;;
57730;SDS011;43570;47.476;19.040;2022-10-26T01:08:19;8.10;;;5.90;;
57730;SDS011;43570;47.476;19.040;2022-10-26T01:10:45;10.30;;;6.25;;
57730;SDS011;43570;47.476;19.040;2022-10-26T01:13:10;8.82;;;6.12;;
57730;SDS011;43570;47.476;19.040;2022-10-26T01:24:04;8.57;;;5.30;;
57730;SDS011;43570;47.476;19.040;2022-10-26T01:26:50;8.55;;;5.60;;
57730;SDS011;43570;47.476;19.040;2022-10-26T01:32:10;8.20;;;5.05;;
57730;SDS011;43570;47.476;19.040;2022-10-26T01:34:45;7.22;;;4.87;;
57730;SDS011;43570;47.476;19.040;2022-10-26T01:37:15;11.12;;;4.95;;
57730;SDS011;43570;47.476;19.040;2022-10-26T01:42:37;8.68;;;4.43;;
57730;SDS011;43570;47.476;19.040;2022-10-26T01:45:06;9.18;;;5.35;;
57730;SDS011;43570;47.476;19.040;2022-10-26T01:47:32;9.93;;;5.05;;
57730;SDS011;43570;47.476;19.040;2022-10-26T01:49:58;8.45;;;5.60;;
57730;SDS011;43570;47.476;19.040;2022-10-26T01:52:25;8.43;;;5.45;;
57730;SDS011;43570;47.476;19.040;2022-10-26T01:54:50;10.90;;;5.37;;
57730;SDS011;43570;47.476;19.040;2022-10-26T01:57:16;8.05;;;5.60;;
57730;SDS011;43570;47.476;19.040;2022-10-26T02:10:32;9.52;;;5.20;;
57730;SDS011;43570;47.476;19.040;2022-10-26T02:13:32;7.45;;;5.45;;
57730;SDS011;43570;47.476;19.040;2022-10-26T02:21:35;9.35;;;6.40;;
57730;SDS011;43570;47.476;19.040;2022-10-26T02:24:02;9.20;;;6.15;;
57730;SDS011;43570;47.476;19.040;2022-10-26T02:26:29;8.05;;;5.20;;
57730;SDS011;43570;47.476;19.040;2022-10-26T02:28:59;9.27;;;5.60;;
57730;SDS011;43570;47.476;19.040;2022-10-26T02:31:27;7.97;;;5.07;;
57730;SDS011;43570;47.476;19.040;2022-10-26T02:33:53;9.02;;;5.35;;
57730;SDS011;43570;47.476;19.040;2022-10-26T02:36:24;8.02;;;4.90;;
57730;SDS011;43570;47.476;19.040;2022-10-26T02:38:51;10.00;;;5.95;;
57730;SDS011;43570;47.476;19.040;2022-10-26T02:41:18;9.93;;;5.47;;
57730;SDS011;43570;47.476;19.040;2022-10-26T02:43:46;9.20;;;5.78;;
57730;SDS011;43570;47.476;19.040;2022-10-26T02:46:16;8.65;;;5.45;;
57730;SDS011;43570;47.476;19.040;2022-10-26T02:48:43;10.40;;;5.93;;
57730;SDS011;43570;47.476;19.040;2022-10-26T02:51:13;11.85;;;6.07;;
57730;SDS011;43570;47.476;19.040;2022-10-26T02:53:44;10.82;;;6.15;;
57730;SDS011;43570;47.476;19.040;2022-10-26T02:56:16;9.85;;;5.85;;
57730;SDS011;43570;47.476;19.040;2022-10-26T02:58:45;10.27;;;5.40;;
57730;SDS011;43570;47.476;19.040;2022-10-26T03:01:13;8.55;;;6.78;;
57730;SDS011;43570;47.476;19.040;2022-10-26T03:03:39;9.60;;;6.45;;
57730;SDS011;43570;47.476;19.040;2022-10-26T03:06:04;8.70;;;6.30;;
57730;SDS011;43570;47.476;19.040;2022-10-26T03:08:30;9.15;;;6.25;;
57730;SDS011;43570;47.476;19.040;2022-10-26T03:10:55;9.50;;;6.47;;
57730;SDS011;43570;47.476;19.040;2022-10-26T03:13:22;10.95;;;6.60;;
57730;SDS011;43570;47.476;19.040;2022-10-26T03:15:47;8.27;;;6.12;;
57730;SDS011;43570;47.476;19.040;2022-10-26T03:18:13;9.35;;;6.85;;
57730;SDS011;43570;47.476;19.040;2022-10-26T03:20:38;9.32;;;6.45;;
57730;SDS011;43570;47.476;19.040;2022-10-26T03:23:04;9.68;;;6.35;;
57730;SDS011;43570;47.476;19.040;2022-10-26T03:25:29;10.15;;;6.62;;
57730;SDS011;43570;47.476;19.040;2022-10-26T03:27:55;9.25;;;6.10;;
57730;SDS011;43570;47.476;19.040;2022-10-26T03:30:24;9.55;;;5.43;;
57730;SDS011;43570;47.476;19.040;2022-10-26T03:32:50;11.50;;;6.28;;
57730;SDS011;43570;47.476;19.040;2022-10-26T03:35:15;11.27;;;5.90;;
57730;SDS011;43570;47.476;19.040;2022-10-26T03:37:40;8.90;;;5.95;;
57730;SDS011;43570;47.476;19.040;2022-10-26T03:40:06;9.55;;;6.12;;
57730;SDS011;43570;47.476;19.040;2022-10-26T03:42:32;9.77;;;6.10;;
57730;SDS011;43570;47.476;19.040;2022-10-26T03:44:58;11.38;;;6.20;;
57730;SDS011;43570;47.476;19.040;2022-10-26T03:47:23;11.12;;;7.53;;
57730;SDS011;43570;47.476;19.040;2022-10-26T03:49:48;9.65;;;6.72;;
57730;SDS011;43570;47.476;19.040;2022-10-26T03:52:14;10.75;;;6.87;;
57730;SDS011;43570;47.476;19.040;2022-10-26T03:54:39;14.25;;;7.12;;
57730;SDS011;43570;47.476;19.040;2022-10-26T03:57:04;12.25;;;7.90;;
57730;SDS011;43570;47.476;19.040;2022-10-26T03:59:30;11.27;;;7.03;;
57730;SDS011;43570;47.476;19.040;2022-10-26T04:01:55;11.65;;;7.00;;
57730;SDS011;43570;47.476;19.040;2022-10-26T04:04:20;12.15;;;7.32;;
57730;SDS011;43570;47.476;19.040;2022-10-26T04:06:46;11.50;;;7.12;;
57730;SDS011;43570;47.476;19.040;2022-10-26T04:09:11;10.02;;;6.47;;
57730;SDS011;43570;47.476;19.040;2022-10-26T04:11:37;9.82;;;6.30;;
57730;SDS011;43570;47.476;19.040;2022-10-26T04:14:02;10.90;;;7.20;;
57730;SDS011;43570;47.476;19.040;2022-10-26T04:16:27;11.85;;;7.78;;
57730;SDS011;43570;47.476;19.040;2022-10-26T04:18:53;11.93;;;8.13;;
57730;SDS011;43570;47.476;19.040;2022-10-26T04:21:18;14.80;;;8.70;;
57730;SDS011;43570;47.476;19.040;2022-10-26T04:23:44;10.93;;;7.72;;
57730;SDS011;43570;47.476;19.040;2022-10-26T04:26:09;10.63;;;8.85;;
57730;SDS011;43570;47.476;19.040;2022-10-26T04:28:34;11.18;;;7.10;;
57730;SDS011;43570;47.476;19.040;2022-10-26T04:31:00;12.45;;;7.32;;
57730;SDS011;43570;47.476;19.040;2022-10-26T04:33:25;16.48;;;9.65;;
57730;SDS011;43570;47.476;19.040;2022-10-26T04:35:50;14.18;;;8.65;;
57730;SDS011;43570;47.476;19.040;2022-10-26T04:38:16;14.98;;;8.52;;
57730;SDS011;43570;47.476;19.040;2022-10-26T04:40:41;14.80;;;8.52;;
57730;SDS011;43570;47.476;19.040;2022-10-26T04:43:06;14.90;;;9.02;;
57730;SDS011;43570;47.476;19.040;2022-10-26T04:45:32;11.55;;;8.32;;
57730;SDS011;43570;47.476;19.040;2022-10-26T04:47:58;15.40;;;9.02;;
57730;SDS011;43570;47.476;19.040;2022-10-26T04:50:27;14.25;;;9.32;;
57730;SDS011;43570;47.476;19.040;2022-10-26T04:52:53;13.60;;;9.25;;
57730;SDS011;43570;47.476;19.040;2022-10-26T04:55:18;15.27;;;9.55;;
57730;SDS011;43570;47.476;19.040;2022-10-26T04:57:43;12.23;;;9.82;;
57730;SDS011;43570;47.476;19.040;2022-10-26T05:00:09;13.93;;;9.90;;
57730;SDS011;43570;47.476;19.040;2022-10-26T05:02:35;15.15;;;10.05;;
57730;SDS011;43570;47.476;19.040;2022-10-26T05:05:00;11.90;;;9.68;;
57730;SDS011;43570;47.476;19.040;2022-10-26T05:07:26;12.55;;;8.75;;
57730;SDS011;43570;47.476;19.040;2022-10-26T05:09:51;13.68;;;8.45;;
57730;SDS011;43570;47.476;19.040;2022-10-26T05:12:17;12.82;;;8.50;;
57730;SDS011;43570;47.476;19.040;2022-10-26T05:14:42;12.57;;;9.23;;
57730;SDS011;43570;47.476;19.040;2022-10-26T05:17:08;11.80;;;9.13;;
57730;SDS011;43570;47.476;19.040;2022-10-26T05:19:33;13.13;;;9.43;;
57730;SDS011;43570;47.476;19.040;2022-10-26T05:21:59;17.23;;;10.40;;
57730;SDS011;43570;47.476;19.040;2022-10-26T05:24:24;16.77;;;10.18;;
57730;SDS011;43570;47.476;19.040;2022-10-26T05:26:49;13.25;;;9.80;;
57730;SDS011;43570;47.476;19.040;2022-10-26T05:29:15;16.65;;;10.73;;
57730;SDS011;43570;47.476;19.040;2022-10-26T05:31:40;18.50;;;12.55;;
57730;SDS011;43570;47.476;19.040;2022-10-26T05:34:05;20.77;;;13.57;;
57730;SDS011;43570;47.476;19.040;2022-10-26T05:36:31;23.92;;;15.05;;
57730;SDS011;43570;47.476;19.040;2022-10-26T05:38:57;23.35;;;15.60;;
57730;SDS011;43570;47.476;19.040;2022-10-26T05:41:23;21.85;;;16.83;;
57730;SDS011;43570;47.476;19.040;2022-10-26T05:43:48;23.30;;;17.33;;
57730;SDS011;43570;47.476;19.040;2022-10-26T05:46:13;21.77;;;15.50;;
57730;SDS011;43570;47.476;19.040;2022-10-26T05:48:39;20.17;;;15.80;;
57730;SDS011;43570;47.476;19.040;2022-10-26T05:51:04;21.37;;;16.45;;
57730;SDS011;43570;47.476;19.040;2022-10-26T05:53:30;27.60;;;18.20;;
57730;SDS011;43570;47.476;19.040;2022-10-26T05:55:55;35.05;;;20.75;;
57730;SDS011;43570;47.476;19.040;2022-10-26T05:58:21;35.15;;;21.37;;
57730;SDS011;43570;47.476;19.040;2022-10-26T06:06:33;44.05;;;23.40;;
57730;SDS011;43570;47.476;19.040;2022-10-26T06:09:03;54.30;;;21.73;;
57730;SDS011;43570;47.476;19.040;2022-10-26T06:11:29;57.17;;;22.55;;
57730;SDS011;43570;47.476;19.040;2022-10-26T06:13:54;52.00;;;20.58;;
57730;SDS011;43570;47.476;19.040;2022-10-26T06:19:02;43.85;;;19.70;;
57730;SDS011;43570;47.476;19.040;2022-10-26T06:32:18;31.20;;;18.00;;
57730;SDS011;43570;47.476;19.040;2022-10-26T06:34:45;24.90;;;16.45;;
57730;SDS011;43570;47.476;19.040;2022-10-26T06:37:12;26.95;;;17.62;;
57730;SDS011;43570;47.476;19.040;2022-10-26T06:39:39;29.42;;;16.15;;
57730;SDS011;43570;47.476;19.040;2022-10-26T06:42:10;29.50;;;16.90;;
57730;SDS011;43570;47.476;19.040;2022-10-26T06:44:36;27.00;;;16.45;;
57730;SDS011;43570;47.476;19.040;2022-10-26T06:47:26;27.13;;;16.60;;
57730;SDS011;43570;47.476;19.040;2022-10-26T06:49:57;24.15;;;16.55;;
57730;SDS011;43570;47.476;19.040;2022-10-26T06:55:00;19.37;;;16.27;;
57730;SDS011;43570;47.476;19.040;2022-10-26T06:57:31;20.33;;;15.23;;
57730;SDS011;43570;47.476;19.040;2022-10-26T06:59:59;22.10;;;16.08;;
57730;SDS011;43570;47.476;19.040;2022-10-26T07:02:28;28.48;;;16.45;;
57730;SDS011;43570;47.476;19.040;2022-10-26T07:04:53;26.00;;;17.73;;
57730;SDS011;43570;47.476;19.040;2022-10-26T07:07:19;20.00;;;16.20;;
57730;SDS011;43570;47.476;19.040;2022-10-26T07:09:46;20.27;;;16.73;;
57730;SDS011;43570;47.476;19.040;2022-10-26T07:12:11;21.27;;;16.95;;
57730;SDS011;43570;47.476;19.040;2022-10-26T07:14:37;20.05;;;16.92;;
57730;SDS011;43570;47.476;19.040;2022-10-26T07:17:02;21.40;;;15.88;;
57730;SDS011;43570;47.476;19.040;2022-10-26T07:19:28;24.55;;;16.67;;
57730;SDS011;43570;47.476;19.040;2022-10-26T07:21:53;22.35;;;17.15;;
57730;SDS011;43570;47.476;19.040;2022-10-26T07:24:20;21.67;;;17.58;;
57730;SDS011;43570;47.476;19.040;2022-10-26T07:26:47;21.37;;;18.65;;
57730;SDS011;43570;47.476;19.040;2022-10-26T07:29:12;28.20;;;20.02;;
57730;SDS011;43570;47.476;19.040;2022-10-26T07:31:38;30.40;;;20.48;;
57730;SDS011;43570;47.476;19.040;2022-10-26T07:34:03;31.95;;;20.23;;
57730;SDS011;43570;47.476;19.040;2022-10-26T07:36:29;27.35;;;20.60;;
57730;SDS011;43570;47.476;19.040;2022-10-26T07:38:54;28.73;;;23.10;;
57730;SDS011;43570;47.476;19.040;2022-10-26T07:41:19;29.08;;;22.40;;
57730;SDS011;43570;47.476;19.040;2022-10-26T07:43:45;28.17;;;21.98;;
57730;SDS011;43570;47.476;19.040;2022-10-26T07:46:11;24.27;;;20.42;;
57730;SDS011;43570;47.476;19.040;2022-10-26T07:48:36;24.75;;;19.85;;
57730;SDS011;43570;47.476;19.040;2022-10-26T07:51:03;26.73;;;19.02;;
57730;SDS011;43570;47.476;19.040;2022-10-26T07:53:29;21.70;;;18.37;;
57730;SDS011;43570;47.476;19.040;2022-10-26T07:55:55;22.52;;;16.95;;
57730;SDS011;43570;47.476;19.040;2022-10-26T07:58:21;18.75;;;15.55;;
57730;SDS011;43570;47.476;19.040;2022-10-26T08:00:49;17.83;;;15.38;;
57730;SDS011;43570;47.476;19.040;2022-10-26T08:03:18;19.52;;;15.13;;
57730;SDS011;43570;47.476;19.040;2022-10-26T08:05:44;23.12;;;16.87;;
57730;SDS011;43570;47.476;19.040;2022-10-26T08:08:11;22.90;;;17.15;;
57730;SDS011;43570;47.476;19.040;2022-10-26T08:10:40;19.62;;;15.63;;
57730;SDS011;43570;47.476;19.040;2022-10-26T08:13:06;17.92;;;14.38;;
57730;SDS011;43570;47.476;19.040;2022-10-26T08:15:32;19.15;;;14.57;;
57730;SDS011;43570;47.476;19.040;2022-10-26T08:17:57;19.98;;;15.57;;
57730;SDS011;43570;47.476;19.040;2022-10-26T08:20:22;15.80;;;13.80;;
57730;SDS011;43570;47.476;19.040;2022-10-26T08:22:48;15.48;;;13.18;;
57730;SDS011;43570;47.476;19.040;2022-10-26T08:25:13;15.73;;;13.40;;
57730;SDS011;43570;47.476;19.040;2022-10-26T08:27:38;16.87;;;14.15;;
57730;SDS011;43570;47.476;19.040;2022-10-26T08:30:04;17.50;;;15.25;;
57730;SDS011;43570;47.476;19.040;2022-10-26T08:32:30;19.02;;;15.13;;
57730;SDS011;43570;47.476;19.040;2022-10-26T08:34:55;20.10;;;16.33;;
57730;SDS011;43570;47.476;19.040;2022-10-26T08:37:20;17.98;;;15.73;;
57730;SDS011;43570;47.476;19.040;2022-10-26T08:39:46;17.73;;;15.80;;
57730;SDS011;43570;47.476;19.040;2022-10-26T08:42:16;17.23;;;15.32;;
57730;SDS011;43570;47.476;19.040;2022-10-26T08:44:46;18.40;;;15.60;;
57730;SDS011;43570;47.476;19.040;2022-10-26T08:47:20;17.77;;;15.88;;
57730;SDS011;43570;47.476;19.040;2022-10-26T08:53:04;20.25;;;17.75;;
57730;SDS011;43570;47.476;19.040;2022-10-26T08:55:55;18.25;;;16.10;;
57730;SDS011;43570;47.476;19.040;2022-10-26T08:58:26;20.60;;;15.85;;
57730;SDS011;43570;47.476;19.040;2022-10-26T09:00:54;18.42;;;14.90;;
57730;SDS011;43570;47.476;19.040;2022-10-26T09:03:19;17.52;;;14.20;;
57730;SDS011;43570;47.476;19.040;2022-10-26T09:21:52;13.62;;;11.27;;
57730;SDS011;43570;47.476;19.040;2022-10-26T09:24:33;16.08;;;11.52;;
57730;SDS011;43570;47.476;19.040;2022-10-26T09:30:03;12.43;;;10.32;;
57730;SDS011;43570;47.476;19.040;2022-10-26T09:32:36;14.13;;;10.70;;
57730;SDS011;43570;47.476;19.040;2022-10-26T09:35:08;13.65;;;10.32;;
57730;SDS011;43570;47.476;19.040;2022-10-26T09:37:39;11.12;;;9.88;;
57730;SDS011;43570;47.476;19.040;2022-10-26T09:40:14;12.63;;;10.40;;
57730;SDS011;43570;47.476;19.040;2022-10-26T09:42:42;12.13;;;10.45;;
57730;SDS011;43570;47.476;19.040;2022-10-26T09:47:52;10.93;;;9.38;;
57730;SDS011;43570;47.476;19.040;2022-10-26T09:50:21;14.27;;;9.75;;
57730;SDS011;43570;47.476;19.040;2022-10-26T09:52:48;14.45;;;10.63;;
57730;SDS011;43570;47.476;19.040;2022-10-26T09:55:14;13.23;;;10.10;;
57730;SDS011;43570;47.476;19.040;2022-10-26T09:57:44;13.70;;;10.50;;
57730;SDS011;43570;47.476;19.040;2022-10-26T10:00:14;14.23;;;10.75;;
57730;SDS011;43570;47.476;19.040;2022-10-26T10:02:40;13.68;;;9.93;;
57730;SDS011;43570;47.476;19.040;2022-10-26T10:08:38;11.50;;;10.30;;
57730;SDS011;43570;47.476;19.040;2022-10-26T10:11:07;10.30;;;9.20;;
57730;SDS011;43570;47.476;19.040;2022-10-26T10:13:42;11.90;;;9.77;;
57730;SDS011;43570;47.476;19.040;2022-10-26T10:16:13;11.43;;;10.10;;
57730;SDS011;43570;47.476;19.040;2022-10-26T10:18:51;11.80;;;10.30;;
57730;SDS011;43570;47.476;19.040;2022-10-26T10:21:17;12.15;;;10.85;;
57730;SDS011;43570;47.476;19.040;2022-10-26T10:23:47;13.40;;;11.43;;
57730;SDS011;43570;47.476;19.040;2022-10-26T10:26:16;13.23;;;11.85;;
57730;SDS011;43570;47.476;19.040;2022-10-26T10:28:41;15.40;;;12.77;;
57730;SDS011;43570;47.476;19.040;2022-10-26T10:31:20;14.80;;;12.13;;
57730;SDS011;43570;47.476;19.040;2022-10-26T10:33:47;14.13;;;12.68;;
57730;SDS011;43570;47.476;19.040;2022-10-26T10:36:17;15.23;;;13.30;;
57730;SDS011;43570;47.476;19.040;2022-10-26T10:38:44;17.23;;;13.50;;
57730;SDS011;43570;47.476;19.040;2022-10-26T10:41:14;17.42;;;14.05;;
57730;SDS011;43570;47.476;19.040;2022-10-26T10:43:45;17.23;;;14.57;;
57730;SDS011;43570;47.476;19.040;2022-10-26T10:46:16;15.23;;;13.65;;
57730;SDS011;43570;47.476;19.040;2022-10-26T10:48:46;17.83;;;15.02;;
57730;SDS011;43570;47.476;19.040;2022-10-26T10:51:16;16.55;;;13.93;;
57730;SDS011;43570;47.476;19.040;2022-10-26T10:53:43;19.85;;;15.50;;
57730;SDS011;43570;47.476;19.040;2022-10-26T10:59:51;18.02;;;14.32;;
57730;SDS011;43570;47.476;19.040;2022-10-26T11:10:37;19.23;;;14.85;;
57730;SDS011;43570;47.476;19.040;2022-10-26T11:13:24;18.07;;;15.33;;
57730;SDS011;43570;47.476;19.040;2022-10-26T11:15:55;17.35;;;15.30;;
57730;SDS011;43570;47.476;19.040;2022-10-26T11:18:29;20.33;;;18.02;;
57730;SDS011;43570;47.476;19.040;2022-10-26T11:21:03;17.48;;;15.43;;
57730;SDS011;43570;47.476;19.040;2022-10-26T11:23:37;19.00;;;16.85;;
57730;SDS011;43570;47.476;19.040;2022-10-26T11:31:36;19.83;;;17.67;;
57730;SDS011;43570;47.476;19.040;2022-10-26T11:36:32;22.17;;;18.25;;
57730;SDS011;43570;47.476;19.040;2022-10-26T11:39:05;21.65;;;18.60;;
57730;SDS011;43570;47.476;19.040;2022-10-26T11:41:37;23.12;;;19.10;;
57730;SDS011;43570;47.476;19.040;2022-10-26T11:44:19;24.60;;;19.77;;
57730;SDS011;43570;47.476;19.040;2022-10-26T11:46:55;24.35;;;19.67;;
57730;SDS011;43570;47.476;19.040;2022-10-26T11:49:41;23.47;;;20.03;;
57730;SDS011;43570;47.476;19.040;2022-10-26T11:54:43;23.08;;;20.50;;
57730;SDS011;43570;47.476;19.040;2022-10-26T11:57:11;25.77;;;21.77;;
57730;SDS011;43570;47.476;19.040;2022-10-26T11:59:38;26.08;;;21.73;;
57730;SDS011;43570;47.476;19.040;2022-10-26T12:02:14;26.70;;;21.92;;
57730;SDS011;43570;47.476;19.040;2022-10-26T12:04:43;26.35;;;22.92;;
57730;SDS011;43570;47.476;19.040;2022-10-26T12:07:25;26.98;;;22.73;;
57730;SDS011;43570;47.476;19.040;2022-10-26T12:09:53;27.65;;;23.23;;
57730;SDS011;43570;47.476;19.040;2022-10-26T12:18:06;25.30;;;20.85;;
57730;SDS011;43570;47.476;19.040;2022-10-26T12:23:51;29.05;;;21.48;;
57730;SDS011;43570;47.476;19.040;2022-10-26T12:34:01;25.85;;;20.55;;
57730;SDS011;43570;47.476;19.040;2022-10-26T12:44:33;27.92;;;22.42;;
57730;SDS011;43570;47.476;19.040;2022-10-26T12:47:00;26.23;;;22.67;;
57730;SDS011;43570;47.476;19.040;2022-10-26T12:52:30;27.33;;;22.42;;
57730;SDS011;43570;47.476;19.040;2022-10-26T13:03:38;26.40;;;21.90;;
57730;SDS011;43570;47.476;19.040;2022-10-26T13:08:54;31.90;;;21.48;;
57730;SDS011;43570;47.476;19.040;2022-10-26T13:14:05;24.52;;;20.80;;
57730;SDS011;43570;47.476;19.040;2022-10-26T13:16:39;26.10;;;22.30;;
57730;SDS011;43570;47.476;19.040;2022-10-26T13:19:20;26.15;;;21.95;;
57730;SDS011;43570;47.476;19.040;2022-10-26T13:21:47;26.73;;;21.87;;
57730;SDS011;43570;47.476;19.040;2022-10-26T13:24:13;25.73;;;21.55;;
57730;SDS011;43570;47.476;19.040;2022-10-26T13:29:29;24.83;;;20.90;;
57730;SDS011;43570;47.476;19.040;2022-10-26T13:31:54;27.62;;;20.25;;
57730;SDS011;43570;47.476;19.040;2022-10-26T13:34:21;27.80;;;21.73;;
57730;SDS011;43570;47.476;19.040;2022-10-26T13:36:52;25.52;;;20.02;;
57730;SDS011;43570;47.476;19.040;2022-10-26T13:39:39;29.42;;;21.90;;
57730;SDS011;43570;47.476;19.040;2022-10-26T13:42:11;26.08;;;20.25;;
57730;SDS011;43570;47.476;19.040;2022-10-26T13:44:44;28.02;;;21.52;;
57730;SDS011;43570;47.476;19.040;2022-10-26T13:50:17;23.17;;;18.42;;
57730;SDS011;43570;47.476;19.040;2022-10-26T13:52:44;25.92;;;18.95;;
57730;SDS011;43570;47.476;19.040;2022-10-26T13:58:00;24.17;;;18.87;;
57730;SDS011;43570;47.476;19.040;2022-10-26T14:00:27;23.10;;;18.08;;
57730;SDS011;43570;47.476;19.040;2022-10-26T14:02:52;22.20;;;18.02;;
57730;SDS011;43570;47.476;19.040;2022-10-26T14:05:18;23.38;;;18.60;;
57730;SDS011;43570;47.476;19.040;2022-10-26T14:10:28;24.52;;;18.80;;
57730;SDS011;43570;47.476;19.040;2022-10-26T14:12:56;24.77;;;19.48;;
57730;SDS011;43570;47.476;19.040;2022-10-26T14:15:23;24.75;;;18.30;;
57730;SDS011;43570;47.476;19.040;2022-10-26T14:17:50;27.50;;;19.23;;
57730;SDS011;43570;47.476;19.040;2022-10-26T14:20:18;24.83;;;17.98;;
57730;SDS011;43570;47.476;19.040;2022-10-26T14:22:45;24.73;;;18.50;;
57730;SDS011;43570;47.476;19.040;2022-10-26T14:27:43;23.92;;;17.73;;
57730;SDS011;43570;47.476;19.040;2022-10-26T14:30:31;22.58;;;16.55;;
57730;SDS011;43570;47.476;19.040;2022-10-26T14:32:56;21.60;;;17.02;;
57730;SDS011;43570;47.476;19.040;2022-10-26T14:35:26;25.05;;;17.00;;
57730;SDS011;43570;47.476;19.040;2022-10-26T14:37:58;24.15;;;16.42;;
57730;SDS011;43570;47.476;19.040;2022-10-26T14:40:26;21.37;;;16.50;;
57730;SDS011;43570;47.476;19.040;2022-10-26T14:42:54;18.60;;;15.75;;
57730;SDS011;43570;47.476;19.040;2022-10-26T14:47:51;20.33;;;15.73;;
57730;SDS011;43570;47.476;19.040;2022-10-26T14:50:18;20.75;;;15.05;;
57730;SDS011;43570;47.476;19.040;2022-10-26T14:52:48;19.08;;;14.98;;
57730;SDS011;43570;47.476;19.040;2022-10-26T14:55:15;18.85;;;14.07;;
57730;SDS011;43570;47.476;19.040;2022-10-26T14:57:41;22.90;;;15.95;;
57730;SDS011;43570;47.476;19.040;2022-10-26T15:00:18;19.23;;;15.02;;
57730;SDS011;43570;47.476;19.040;2022-10-26T15:02:45;21.20;;;13.88;;
57730;SDS011;43570;47.476;19.040;2022-10-26T15:07:57;20.25;;;13.90;;
57730;SDS011;43570;47.476;19.040;2022-10-26T15:15:46;19.50;;;16.10;;
57730;SDS011;43570;47.476;19.040;2022-10-26T15:18:19;19.27;;;15.05;;
57730;SDS011;43570;47.476;19.040;2022-10-26T15:20:46;17.58;;;14.93;;
57730;SDS011;43570;47.476;19.040;2022-10-26T15:23:13;20.75;;;16.17;;
57730;SDS011;43570;47.476;19.040;2022-10-26T15:25:38;22.52;;;16.02;;
57730;SDS011;43570;47.476;19.040;2022-10-26T15:28:19;25.17;;;15.50;;
57730;SDS011;43570;47.476;19.040;2022-10-26T15:33:34;18.83;;;14.70;;
57730;SDS011;43570;47.476;19.040;2022-10-26T15:38:32;26.60;;;17.25;;
57730;SDS011;43570;47.476;19.040;2022-10-26T15:40:58;21.98;;;16.37;;
57730;SDS011;43570;47.476;19.040;2022-10-26T15:43:23;30.10;;;20.08;;
57730;SDS011;43570;47.476;19.040;2022-10-26T15:45:49;30.30;;;22.40;;
57730;SDS011;43570;47.476;19.040;2022-10-26T15:48:23;28.98;;;22.55;;
57730;SDS011;43570;47.476;19.040;2022-10-26T15:50:51;29.10;;;21.83;;
57730;SDS011;43570;47.476;19.040;2022-10-26T15:53:18;30.92;;;22.42;;
57730;SDS011;43570;47.476;19.040;2022-10-26T15:55:45;31.15;;;21.50;;
57730;SDS011;43570;47.476;19.040;2022-10-26T15:58:10;35.13;;;22.58;;
57730;SDS011;43570;47.476;19.040;2022-10-26T16:00:36;27.25;;;20.85;;
57730;SDS011;43570;47.476;19.040;2022-10-26T16:03:01;31.00;;;22.17;;
57730;SDS011;43570;47.476;19.040;2022-10-26T16:05:27;32.40;;;22.48;;
57730;SDS011;43570;47.476;19.040;2022-10-26T16:07:52;31.65;;;22.20;;
57730;SDS011;43570;47.476;19.040;2022-10-26T16:10:22;31.12;;;23.30;;
57730;SDS011;43570;47.476;19.040;2022-10-26T16:12:48;30.30;;;21.45;;
57730;SDS011;43570;47.476;19.040;2022-10-26T16:15:21;28.52;;;21.45;;
57730;SDS011;43570;47.476;19.040;2022-10-26T16:17:48;30.58;;;21.50;;
57730;SDS011;43570;47.476;19.040;2022-10-26T16:20:15;36.15;;;23.05;;
57730;SDS011;43570;47.476;19.040;2022-10-26T16:22:42;32.95;;;21.70;;
57730;SDS011;43570;47.476;19.040;2022-10-26T16:25:12;30.92;;;20.80;;
57730;SDS011;43570;47.476;19.040;2022-10-26T16:27:38;29.98;;;20.73;;
57730;SDS011;43570;47.476;19.040;2022-10-26T16:30:04;28.02;;;21.20;;
57730;SDS011;43570;47.476;19.040;2022-10-26T16:32:29;30.35;;;21.33;;
57730;SDS011;43570;47.476;19.040;2022-10-26T16:34:55;31.40;;;22.20;;
57730;SDS011;43570;47.476;19.040;2022-10-26T16:37:20;34.05;;;22.65;;
57730;SDS011;43570;47.476;19.040;2022-10-26T16:39:45;31.73;;;22.27;;
57730;SDS011;43570;47.476;19.040;2022-10-26T16:42:11;30.92;;;23.02;;
57730;SDS011;43570;47.476;19.040;2022-10-26T16:44:37;30.27;;;22.70;;
57730;SDS011;43570;47.476;19.040;2022-10-26T16:47:03;31.85;;;23.00;;
57730;SDS011;43570;47.476;19.040;2022-10-26T16:49:28;30.33;;;22.70;;
57730;SDS011;43570;47.476;19.040;2022-10-26T16:51:54;35.70;;;24.25;;
57730;SDS011;43570;47.476;19.040;2022-10-26T16:54:21;36.03;;;25.80;;
57730;SDS011;43570;47.476;19.040;2022-10-26T16:56:47;37.35;;;26.17;;
57730;SDS011;43570;47.476;19.040;2022-10-26T16:59:13;37.33;;;26.25;;
57730;SDS011;43570;47.476;19.040;2022-10-26T17:01:38;36.63;;;24.92;;
57730;SDS011;43570;47.476;19.040;2022-10-26T17:04:03;34.42;;;24.77;;
57730;SDS011;43570;47.476;19.040;2022-10-26T17:06:29;35.28;;;25.35;;
57730;SDS011;43570;47.476;19.040;2022-10-26T17:08:54;29.80;;;23.85;;
57730;SDS011;43570;47.476;19.040;2022-10-26T17:11:20;33.22;;;24.92;;
57730;SDS011;43570;47.476;19.040;2022-10-26T17:13:46;37.30;;;26.08;;
57730;SDS011;43570;47.476;19.040;2022-10-26T17:16:16;33.35;;;25.42;;
57730;SDS011;43570;47.476;19.040;2022-10-26T17:18:43;33.17;;;25.83;;